Time;durP1;ratioP1;P1;durP2;ratioP2;P2;SDS_P1;SDS_P2;PMS_P1;PMS_P2;Temp;Humidity;BMP_temperature;BMP_pressure;BME280_temperature;BME280_humidity;BME280_pressure;Samples;Min_cycle;Max_cycle;Signal;HPM_P1;HPM_P2
2021/03/24 00:01:23;;;;;;;20.95;10.98;;;;;;;4.57;66.49;97091.50;5053036;28;20098;-67
2021/03/24 00:03:49;;;;;;;23.35;11.52;;;;;;;4.63;66.36;97095.84;5052809;28;20543;-67
2021/03/24 00:06:17;;;;;;;25.40;11.32;;;;;;;4.53;66.18;97095.78;5052696;28;20053;-69
2021/03/24 00:08:43;;;;;;;22.83;11.60;;;;;;;4.43;66.53;97094.63;5053406;28;20041;-68
2021/03/24 00:11:10;;;;;;;20.45;11.10;;;;;;;4.51;66.51;97097.94;5052241;28;20048;-67
2021/03/24 00:13:37;;;;;;;19.77;11.30;;;;;;;4.56;66.31;97103.34;5053677;28;20065;-67
2021/03/24 00:16:04;;;;;;;21.95;10.73;;;;;;;4.54;66.21;97095.53;5051982;28;20496;-69
2021/03/24 00:18:31;;;;;;;23.08;11.55;;;;;;;4.55;66.02;97096.34;5053520;28;20041;-69
2021/03/24 00:20:58;;;;;;;24.67;12.13;;;;;;;4.51;65.70;97097.94;5069472;28;20040;-69
2021/03/24 00:23:25;;;;;;;23.10;11.68;;;;;;;4.40;66.18;97099.75;5053454;28;20102;-67
2021/03/24 00:25:52;;;;;;;25.95;11.27;;;;;;;4.40;66.36;97094.38;5051941;28;20048;-69
2021/03/24 00:28:19;;;;;;;21.83;11.30;;;;;;;4.40;66.51;97092.47;5051294;28;20057;-68
2021/03/24 00:30:47;;;;;;;22.15;11.45;;;;;;;4.48;66.48;97074.16;5052880;28;20051;-68
2021/03/24 00:33:15;;;;;;;23.20;11.50;;;;;;;4.47;66.11;97083.34;5051923;28;20049;-68
2021/03/24 00:35:42;;;;;;;21.73;11.13;;;;;;;4.46;66.11;97082.53;5052875;28;20056;-68
2021/03/24 00:38:09;;;;;;;20.67;11.00;;;;;;;4.42;66.29;97082.22;5051559;28;20499;-67
2021/03/24 00:40:38;;;;;;;22.95;12.00;;;;;;;4.45;66.09;97080.91;5053239;28;20045;-67
2021/03/24 00:43:06;;;;;;;22.75;11.68;;;;;;;4.48;66.35;97082.25;5051629;28;20430;-67
2021/03/24 00:45:32;;;;;;;23.10;11.75;;;;;;;4.53;66.35;97079.59;5053110;28;20041;-67
2021/03/24 00:47:58;;;;;;;20.90;11.15;;;;;;;4.56;66.21;97073.69;5051952;28;20049;-67
2021/03/24 00:50:27;;;;;;;21.92;11.48;;;;;;;4.52;66.46;97076.09;5051631;28;20083;-67
2021/03/24 00:52:53;;;;;;;21.30;11.50;;;;;;;4.51;66.70;97062.88;5052626;28;20051;-68
2021/03/24 00:55:19;;;;;;;21.17;11.35;;;;;;;4.45;66.46;97062.84;5051551;28;20045;-68
2021/03/24 00:57:46;;;;;;;20.58;11.55;;;;;;;4.46;66.94;97071.75;5052690;28;20049;-68
2021/03/24 01:00:16;;;;;;;22.60;12.35;;;;;;;4.38;67.01;97067.63;5051124;28;20110;-68
2021/03/24 01:02:42;;;;;;;22.88;11.35;;;;;;;4.34;67.20;97057.66;5052642;28;20045;-68
2021/03/24 01:05:11;;;;;;;22.85;11.77;;;;;;;4.26;67.32;97058.94;5051254;28;20049;-68
2021/03/24 01:07:38;;;;;;;20.90;10.90;;;;;;;4.21;67.55;97056.22;5052597;28;20554;-68
2021/03/24 01:10:06;;;;;;;24.40;12.10;;;;;;;4.21;67.52;97048.13;5051091;28;20049;-68
2021/03/24 01:12:32;;;;;;;21.40;11.85;;;;;;;4.20;67.69;97049.22;5052198;28;20056;-68
2021/03/24 01:14:58;;;;;;;24.67;11.85;;;;;;;4.15;67.73;97043.78;5051716;28;20074;-68
2021/03/24 01:17:24;;;;;;;25.45;12.35;;;;;;;4.12;67.56;97046.97;5051612;28;20037;-67
2021/03/24 01:19:50;;;;;;;23.25;11.63;;;;;;;4.12;67.77;97038.91;5051650;28;20507;-68
2021/03/24 01:22:16;;;;;;;20.63;11.00;;;;;;;4.08;67.66;97044.03;5050879;28;20045;-68
2021/03/24 01:24:42;;;;;;;21.17;11.68;;;;;;;4.01;67.92;97037.22;5052398;28;20556;-68
2021/03/24 01:27:09;;;;;;;23.13;12.07;;;;;;;3.88;68.11;97033.91;5050474;28;20045;-68
2021/03/24 01:29:35;;;;;;;22.20;12.32;;;;;;;3.85;68.36;97037.09;5052063;28;20041;-68
2021/03/24 01:32:03;;;;;;;24.23;12.57;;;;;;;3.77;68.56;97037.59;5051032;28;20059;-68
2021/03/24 01:34:28;;;;;;;22.83;12.23;;;;;;;3.72;68.78;97037.56;5051194;28;20037;-67
2021/03/24 01:36:54;;;;;;;23.38;12.35;;;;;;;3.64;68.94;97032.63;5051022;28;20045;-68
2021/03/24 01:39:21;;;;;;;25.42;11.85;;;;;;;3.59;69.10;97036.09;5051064;28;20045;-68
2021/03/24 01:41:46;;;;;;;21.05;11.07;;;;;;;3.55;69.34;97042.22;5051674;28;20037;-68
2021/03/24 01:44:12;;;;;;;21.90;11.40;;;;;;;3.49;69.41;97040.56;5050519;28;20132;-68
2021/03/24 01:46:44;;;;;;;25.90;11.95;;;;;;;3.46;69.48;97043.78;5051431;28;20411;-68
2021/03/24 01:49:25;;;;;;;27.67;12.02;;;;;;;3.43;69.57;97041.59;5049827;28;20041;-68
2021/03/24 01:51:56;;;;;;;21.90;11.50;;;;;;;3.38;69.68;97042.34;5051983;28;20048;-68
2021/03/24 01:54:25;;;;;;;23.38;12.20;;;;;;;3.35;69.82;97040.19;5050149;28;20049;-67
2021/03/24 01:57:04;;;;;;;22.98;11.57;;;;;;;3.29;69.86;97046.56;5051685;28;20508;-68
2021/03/24 01:59:31;;;;;;;24.48;10.48;;;;;;;3.29;69.89;97044.72;5051290;28;20043;-68
2021/03/24 02:01:57;;;;;;;22.58;11.25;;;;;;;3.20;69.96;97043.53;5050801;28;20048;-68
2021/03/24 02:04:24;;;;;;;25.00;12.25;;;;;;;3.17;69.97;97044.03;5051043;28;20049;-68
2021/03/24 02:06:58;;;;;;;21.67;12.07;;;;;;;3.14;70.09;97044.56;5050371;28;20508;-67
2021/03/24 02:09:33;;;;;;;22.02;11.57;;;;;;;3.18;70.13;97048.34;5051400;28;20044;-68
2021/03/24 02:12:05;;;;;;;23.33;11.82;;;;;;;3.20;70.43;97053.50;5050089;28;20057;-67
2021/03/24 02:14:35;;;;;;;22.52;12.00;;;;;;;3.22;70.36;97045.97;5051043;28;20043;-68
2021/03/24 02:17:03;;;;;;;21.90;12.07;;;;;;;3.26;70.40;97053.28;5050476;28;20052;-67
2021/03/24 02:19:41;;;;;;;22.65;12.07;;;;;;;3.25;70.10;97045.47;5055368;28;20048;-67
2021/03/24 02:22:10;;;;;;;23.08;11.43;;;;;;;3.28;69.98;97050.34;5062252;28;20044;-68
2021/03/24 02:24:44;;;;;;;23.75;12.40;;;;;;;3.28;69.71;97056.53;5050164;28;20056;-67
2021/03/24 02:27:12;;;;;;;23.90;11.52;;;;;;;3.32;69.96;97054.16;5050682;28;20045;-67
2021/03/24 02:29:43;;;;;;;21.92;11.50;;;;;;;3.34;69.67;97054.69;5049742;28;20041;-67
2021/03/24 02:32:12;;;;;;;20.33;11.57;;;;;;;3.31;69.52;97045.25;5050771;28;20049;-67
2021/03/24 02:34:41;;;;;;;20.63;10.98;;;;;;;3.30;69.38;97046.34;5050376;28;20048;-67
2021/03/24 02:37:09;;;;;;;20.52;11.80;;;;;;;3.32;69.32;97052.25;5050198;28;20063;-68
2021/03/24 02:39:35;;;;;;;26.25;12.07;;;;;;;3.26;69.21;97050.59;5050603;28;20041;-68
2021/03/24 02:42:04;;;;;;;22.10;11.85;;;;;;;3.21;69.60;97049.72;5049781;28;20147;-68
2021/03/24 02:44:33;;;;;;;21.80;11.52;;;;;;;3.17;69.38;97049.41;5050698;28;20051;-67
2021/03/24 02:47:02;;;;;;;20.17;10.45;;;;;;;3.16;69.64;97041.59;5048556;28;20482;-67
2021/03/24 02:49:28;;;;;;;24.90;11.65;;;;;;;3.11;69.63;97039.66;5055436;28;20040;-67
2021/03/24 02:51:54;;;;;;;21.92;11.35;;;;;;;3.05;69.71;97040.69;5063358;28;20052;-69
2021/03/24 02:54:24;;;;;;;21.98;11.10;;;;;;;3.01;69.88;97039.56;5050265;28;20044;-69
2021/03/24 02:56:50;;;;;;;24.70;12.25;;;;;;;2.99;69.88;97045.22;5049788;28;20037;-70
2021/03/24 02:59:17;;;;;;;22.02;12.00;;;;;;;2.99;69.97;97042.53;5049566;28;20053;-70
2021/03/24 03:01:51;;;;;;;20.58;11.30;;;;;;;2.97;70.01;97044.63;5050142;28;20455;-69
2021/03/24 03:04:25;;;;;;;20.33;10.75;;;;;;;2.99;69.85;97047.91;5049575;28;20048;-69
2021/03/24 03:06:54;;;;;;;20.30;10.77;;;;;;;3.01;69.95;97053.00;5050656;28;20045;-69
2021/03/24 03:09:28;;;;;;;23.98;11.40;;;;;;;3.00;69.85;97054.09;5048930;28;20049;-69
2021/03/24 03:12:00;;;;;;;19.27;10.98;;;;;;;2.99;69.61;97047.09;5050521;28;20049;-69
2021/03/24 03:14:31;;;;;;;25.10;11.82;;;;;;;2.99;69.85;97052.47;5049275;28;20489;-69
2021/03/24 03:17:03;;;;;;;24.00;11.23;;;;;;;3.01;69.74;97051.13;5050470;28;20045;-70
2021/03/24 03:19:32;;;;;;;19.90;10.15;;;;;;;3.03;69.89;97053.59;5049347;28;20128;-69
2021/03/24 03:22:03;;;;;;;21.90;10.82;;;;;;;3.07;69.70;97060.06;5049850;28;20053;-67
2021/03/24 03:24:33;;;;;;;21.40;10.85;;;;;;;3.11;69.91;97066.59;5050084;28;20044;-68
2021/03/24 03:27:02;;;;;;;20.60;11.05;;;;;;;3.11;69.93;97058.50;5049129;28;20052;-68
2021/03/24 03:29:30;;;;;;;21.08;10.68;;;;;;;3.14;69.92;97055.31;5050250;28;20521;-68
2021/03/24 03:31:59;;;;;;;20.58;10.60;;;;;;;3.16;69.79;97058.56;5049333;28;20067;-68
2021/03/24 03:34:27;;;;;;;24.60;11.77;;;;;;;3.21;69.92;97061.31;5049986;28;20037;-67
2021/03/24 03:36:56;;;;;;;22.58;11.35;;;;;;;3.24;69.97;97063.50;5049545;28;20488;-67
2021/03/24 03:39:25;;;;;;;22.00;12.18;;;;;;;3.28;69.98;97061.91;5049921;28;20057;-67
2021/03/24 03:41:54;;;;;;;24.27;10.85;;;;;;;3.26;69.36;97069.44;5050451;28;20045;-67
2021/03/24 03:44:21;;;;;;;21.67;11.23;;;;;;;3.25;69.46;97061.63;5048983;28;20052;-67
2021/03/24 03:46:50;;;;;;;20.73;10.70;;;;;;;3.22;69.38;97065.63;5049137;28;20041;-67
2021/03/24 03:49:17;;;;;;;19.30;10.57;;;;;;;3.24;69.51;97060.00;5046357;28;20041;-67
2021/03/24 03:51:55;;;;;;;20.05;10.73;;;;;;;3.25;69.69;97067.81;5050311;28;20087;-67
2021/03/24 03:54:29;;;;;;;21.67;10.70;;;;;;;3.20;69.79;97065.06;5048831;28;20126;-68
2021/03/24 03:57:02;;;;;;;22.60;11.60;;;;;;;3.18;69.94;97061.81;5049910;28;20102;-68
2021/03/24 03:59:35;;;;;;;20.48;11.13;;;;;;;3.19;70.00;97063.44;5052261;28;20049;-68
2021/03/24 04:02:04;;;;;;;21.75;11.57;;;;;;;3.13;70.21;97059.06;5052979;28;20051;-68
2021/03/24 04:04:36;;;;;;;22.55;10.73;;;;;;;3.14;70.06;97060.72;5053505;28;20377;-68
2021/03/24 04:07:07;;;;;;;19.30;11.05;;;;;;;3.16;69.90;97063.94;5052055;28;20048;-68
2021/03/24 04:09:35;;;;;;;19.25;10.57;;;;;;;3.20;69.84;97062.38;5054116;28;20037;-68
2021/03/24 04:12:06;;;;;;;20.17;10.30;;;;;;;3.18;69.87;97061.81;5052493;28;20044;-69
2021/03/24 04:14:32;;;;;;;23.77;11.43;;;;;;;3.14;69.96;97058.00;5053293;28;20097;-67
2021/03/24 04:16:59;;;;;;;20.13;10.38;;;;;;;3.13;69.95;97062.59;5052637;28;20045;-68
2021/03/24 04:19:29;;;;;;;20.35;10.60;;;;;;;3.12;70.22;97058.25;5052528;28;20048;-67
2021/03/24 04:22:00;;;;;;;22.02;10.95;;;;;;;3.12;70.15;97062.81;5053022;28;20036;-68
2021/03/24 04:24:29;;;;;;;23.15;10.85;;;;;;;3.11;70.18;97061.19;5052422;28;20051;-68
2021/03/24 04:26:59;;;;;;;21.52;10.93;;;;;;;3.05;70.13;97057.66;5053101;28;20599;-68
2021/03/24 04:29:31;;;;;;;22.90;11.45;;;;;;;2.97;70.38;97059.97;5051728;28;20045;-68
2021/03/24 04:32:00;;;;;;;21.73;11.02;;;;;;;2.86;70.48;97051.78;5053320;28;20040;-67
2021/03/24 04:34:27;;;;;;;22.95;10.70;;;;;;;2.83;70.59;97060.38;5051949;28;20041;-67
2021/03/24 04:36:59;;;;;;;22.08;11.65;;;;;;;2.79;70.63;97056.53;5052921;28;20480;-67
2021/03/24 04:39:32;;;;;;;20.27;10.23;;;;;;;2.77;70.79;97065.94;5052300;28;20496;-67
2021/03/24 04:42:01;;;;;;;22.10;10.47;;;;;;;2.71;70.96;97073.09;5052452;28;20067;-67
2021/03/24 04:44:28;;;;;;;20.23;10.32;;;;;;;2.61;71.01;97062.25;5052519;28;20762;-68
2021/03/24 04:47:00;;;;;;;22.92;10.95;;;;;;;2.55;71.56;97068.59;5051923;28;20037;-67
2021/03/24 04:49:28;;;;;;;18.83;10.32;;;;;;;2.52;71.50;97066.44;5052611;28;20037;-67
2021/03/24 04:51:56;;;;;;;21.95;10.88;;;;;;;2.49;71.67;97065.03;5051787;28;20044;-67
2021/03/24 04:54:29;;;;;;;20.58;10.40;;;;;;;2.47;71.57;97066.34;5052370;28;20115;-67
2021/03/24 04:56:58;;;;;;;22.05;10.45;;;;;;;2.43;71.70;97065.22;5051900;28;20045;-67
2021/03/24 04:59:30;;;;;;;21.05;10.23;;;;;;;2.41;71.85;97061.97;5051803;28;20119;-67
2021/03/24 05:02:01;;;;;;;23.20;11.70;;;;;;;2.38;71.87;97074.03;5052394;28;20055;-67
2021/03/24 05:04:30;;;;;;;22.13;11.00;;;;;;;2.33;72.19;97066.69;5051557;28;20041;-67
2021/03/24 05:07:01;;;;;;;23.30;10.82;;;;;;;2.28;72.08;97066.63;5052622;28;20158;-67
2021/03/24 05:09:28;;;;;;;21.85;11.15;;;;;;;2.23;72.30;97066.56;5050425;28;20506;-67
2021/03/24 05:12:06;;;;;;;24.95;11.98;;;;;;;2.19;72.58;97070.78;5052097;28;20106;-67
2021/03/24 05:14:37;;;;;;;22.38;10.95;;;;;;;2.17;72.66;97078.31;5051541;28;20045;-69
2021/03/24 05:17:24;;;;;;;21.23;10.57;;;;;;;2.13;72.64;97071.78;5051368;28;20045;-70
2021/03/24 05:19:56;;;;;;;22.52;11.25;;;;;;;2.09;72.89;97078.72;5032238;28;20053;-67
2021/03/24 05:22:28;;;;;;;21.15;10.82;;;;;;;2.06;72.90;97079.22;5041297;28;20075;-68
2021/03/24 05:25:04;;;;;;;20.92;11.13;;;;;;;2.02;73.30;97084.25;5052588;28;20063;-68
2021/03/24 05:27:37;;;;;;;20.45;10.95;;;;;;;2.01;73.40;97089.88;5050655;28;20064;-67
2021/03/24 05:30:09;;;;;;;21.58;11.10;;;;;;;1.99;73.48;97084.75;5051487;28;20048;-68
2021/03/24 05:32:40;;;;;;;20.67;11.20;;;;;;;1.97;73.56;97092.22;5051774;28;20044;-67
2021/03/24 05:35:23;;;;;;;21.65;11.50;;;;;;;1.95;73.79;97085.50;5051334;28;20060;-68
2021/03/24 05:37:49;;;;;;;27.58;12.77;;;;;;;1.94;73.85;97094.63;5052031;28;20049;-68
2021/03/24 05:40:36;;;;;;;28.17;12.15;;;;;;;1.94;73.76;97097.31;5050422;28;20048;-67
2021/03/24 05:43:13;;;;;;;22.90;11.05;;;;;;;1.93;73.93;97099.19;5051543;28;20045;-69
2021/03/24 05:45:47;;;;;;;24.52;11.20;;;;;;;1.91;73.94;97095.09;5051157;28;20037;-68
2021/03/24 05:48:47;;;;;;;21.52;11.18;;;;;;;1.94;74.27;97099.97;5051276;28;20045;-68
2021/03/24 05:51:36;;;;;;;26.33;11.82;;;;;;;1.92;74.22;97091.34;5049855;28;20049;-68
2021/03/24 05:54:26;;;;;;;24.50;12.18;;;;;;;1.91;74.36;97090.53;5050352;28;20049;-69
2021/03/24 05:57:12;;;;;;;19.70;10.73;;;;;;;1.89;74.30;97091.84;5051252;28;20041;-67
2021/03/24 05:59:49;;;;;;;23.83;11.20;;;;;;;1.90;74.59;97093.47;5051158;28;20492;-68
2021/03/24 06:02:21;;;;;;;20.20;10.43;;;;;;;1.93;74.50;97092.97;5049968;28;20079;-68
2021/03/24 06:04:52;;;;;;;20.00;10.48;;;;;;;1.94;74.93;97094.63;5051146;28;20049;-67
2021/03/24 06:07:42;;;;;;;22.38;10.48;;;;;;;2.01;74.58;97100.63;5048726;28;20056;-68
2021/03/24 06:10:37;;;;;;;19.15;10.38;;;;;;;2.05;74.72;97096.41;5017376;28;20115;-67
2021/03/24 06:13:22;;;;;;;21.67;11.10;;;;;;;2.08;74.58;97095.88;5050503;28;20047;-67
2021/03/24 06:16:14;;;;;;;19.77;10.43;;;;;;;2.12;74.36;97094.34;5050114;28;20045;-67
2021/03/24 06:19:03;;;;;;;20.35;10.02;;;;;;;2.14;73.68;97099.47;5051101;28;20036;-67
2021/03/24 06:21:37;;;;;;;19.95;10.70;;;;;;;2.02;74.06;97091.50;5049605;28;20051;-67
2021/03/24 06:24:19;;;;;;;19.40;10.75;;;;;;;1.97;74.01;97096.78;5049794;28;20052;-69
2021/03/24 06:27:04;;;;;;;21.63;10.20;;;;;;;2.00;74.11;97109.75;5050994;28;20045;-67
2021/03/24 06:29:48;;;;;;;19.73;9.93;;;;;;;2.08;74.23;97101.25;5049449;28;19920;-67
2021/03/24 06:32:48;;;;;;;21.48;10.63;;;;;;;2.13;73.98;97116.66;5050390;28;20045;-67
2021/03/24 06:35:34;;;;;;;20.45;10.05;;;;;;;2.18;73.96;97111.34;5050201;28;20072;-67
2021/03/24 06:38:20;;;;;;;19.02;9.38;;;;;;;2.27;73.63;97109.88;5049721;28;20116;-67
2021/03/24 06:41:01;;;;;;;20.83;10.30;;;;;;;2.37;73.45;97111.91;5050973;28;20037;-67
2021/03/24 06:43:55;;;;;;;21.13;10.35;;;;;;;2.45;73.30;97116.84;5049788;28;20385;-67
2021/03/24 06:46:32;;;;;;;19.58;9.88;;;;;;;2.50;73.40;97116.91;5049584;28;20048;-67
2021/03/24 06:49:15;;;;;;;20.42;9.73;;;;;;;2.59;73.20;97113.56;5050327;28;20053;-67
2021/03/24 06:52:22;;;;;;;21.85;10.75;;;;;;;2.61;72.75;97126.78;5049493;28;20116;-67
2021/03/24 06:55:24;;;;;;;25.27;9.88;;;;;;;2.61;72.77;97119.53;5050100;28;20399;-67
2021/03/24 06:58:11;;;;;;;20.60;10.00;;;;;;;2.78;72.42;97121.34;5050238;28;20044;-67
2021/03/24 07:00:52;;;;;;;19.63;10.55;;;;;;;2.86;72.09;97128.97;5049553;28;20047;-74
2021/03/24 07:03:52;;;;;;;26.33;10.82;;;;;;;2.96;72.53;97128.28;5050029;28;20053;-74
2021/03/24 07:06:43;;;;;;;20.92;10.25;;;;;;;2.98;71.67;97126.19;5049946;28;20045;-74
2021/03/24 07:09:19;;;;;;;20.88;10.85;;;;;;;3.10;72.03;97133.06;5049254;28;20049;-73
2021/03/24 07:12:08;;;;;;;24.23;11.40;;;;;;;3.24;71.73;97133.50;5050640;28;20135;-71
2021/03/24 07:14:48;;;;;;;19.33;11.23;;;;;;;3.38;70.25;97132.00;5049788;28;20051;-71
2021/03/24 07:17:51;;;;;;;22.40;9.77;;;;;;;4.41;68.38;97133.72;5048766;28;20049;-72
2021/03/24 07:20:45;;;;;;;21.55;10.23;;;;;;;5.35;65.13;97127.47;5027787;28;20046;-72
2021/03/24 07:23:35;;;;;;;19.38;10.75;;;;;;;6.23;61.72;97121.94;5044986;28;20037;-72
2021/03/24 07:26:05;;;;;;;19.63;9.93;;;;;;;6.80;60.26;97123.47;5049955;28;20052;-72
2021/03/24 07:29:05;;;;;;;22.42;10.20;;;;;;;7.58;57.50;97122.09;5049484;28;20048;-72
2021/03/24 07:32:03;;;;;;;16.65;9.75;;;;;;;8.22;55.88;97134.66;5049430;28;20033;-71
2021/03/24 07:34:49;;;;;;;21.90;9.43;;;;;;;8.67;54.22;97138.09;5040861;28;20045;-71
2021/03/24 07:37:41;;;;;;;25.83;10.82;;;;;;;9.26;54.18;97141.53;5053768;28;20056;-72
2021/03/24 07:40:39;;;;;;;16.92;9.85;;;;;;;9.88;51.14;97142.38;5008855;28;20508;-71
2021/03/24 07:43:32;;;;;;;18.75;10.60;;;;;;;10.09;50.46;97132.78;5053961;28;20047;-72
2021/03/24 07:46:19;;;;;;;24.37;11.07;;;;;;;10.44;49.65;97139.63;5053730;28;20049;-74
2021/03/24 07:49:06;;;;;;;18.10;9.93;;;;;;;10.90;48.64;97140.72;5053808;28;20041;-73
2021/03/24 07:52:08;;;;;;;19.08;9.75;;;;;;;10.86;47.41;97135.09;5054382;28;20045;-73
2021/03/24 07:54:42;;;;;;;29.40;11.25;;;;;;;11.03;47.33;97139.94;5022194;28;20044;-73
2021/03/24 07:57:18;;;;;;;22.92;11.23;;;;;;;11.19;47.94;97135.81;5053188;28;20553;-73
2021/03/24 07:59:51;;;;;;;18.40;10.50;;;;;;;11.44;45.85;97133.69;5053635;28;20569;-73
2021/03/24 08:02:36;;;;;;;20.87;11.27;;;;;;;11.45;45.15;97136.09;5052600;28;20051;-72
2021/03/24 08:05:20;;;;;;;19.00;11.60;;;;;;;11.75;45.84;97140.13;5053904;28;20041;-71
2021/03/24 08:07:54;;;;;;;23.25;11.70;;;;;;;11.87;43.62;97136.88;5052876;28;20087;-73
2021/03/24 08:10:37;;;;;;;29.02;11.63;;;;;;;12.23;45.36;97138.78;5053087;28;20044;-73
2021/03/24 08:13:36;;;;;;;19.17;10.98;;;;;;;12.69;43.70;97133.00;5053223;28;20102;-73
2021/03/24 08:16:22;;;;;;;17.55;10.60;;;;;;;12.65;41.92;97132.03;5035446;28;20045;-74
2021/03/24 08:18:59;;;;;;;20.50;10.95;;;;;;;12.69;41.61;97134.94;5054046;28;20500;-71
2021/03/24 08:21:32;;;;;;;19.30;10.60;;;;;;;12.48;41.52;97140.13;5052729;28;20053;-72
2021/03/24 08:24:18;;;;;;;18.65;11.85;;;;;;;12.23;43.25;97136.06;5052000;28;20045;-71
2021/03/24 08:26:49;;;;;;;32.17;12.07;;;;;;;12.72;42.04;97135.09;5053245;28;20480;-71
2021/03/24 08:29:25;;;;;;;20.02;11.13;;;;;;;13.17;42.29;97134.22;5051387;28;20045;-73
2021/03/24 08:32:35;;;;;;;19.38;11.35;;;;;;;13.57;39.98;97132.28;5053364;28;20504;-73
2021/03/24 08:35:37;;;;;;;23.30;11.13;;;;;;;13.79;40.54;97125.91;5052603;28;20044;-73
2021/03/24 08:38:16;;;;;;;20.80;11.07;;;;;;;14.16;38.46;97129.97;5051616;28;20040;-71
2021/03/24 08:41:05;;;;;;;20.50;11.90;;;;;;;14.32;37.94;97122.84;5053511;28;20037;-73
2021/03/24 08:43:59;;;;;;;23.20;11.48;;;;;;;14.75;38.41;97118.47;5052418;28;20041;-71
2021/03/24 08:46:29;;;;;;;21.73;11.52;;;;;;;15.26;37.23;97120.25;5050044;28;20041;-71
2021/03/24 08:49:01;;;;;;;22.63;11.35;;;;;;;15.58;35.15;97121.53;5053296;28;20052;-72
2021/03/24 08:51:40;;;;;;;21.42;12.18;;;;;;;14.68;36.71;97127.19;5052015;28;20703;-72
2021/03/24 08:54:49;;;;;;;19.65;12.02;;;;;;;14.70;36.58;97119.44;5052698;28;20055;-73
2021/03/24 08:57:27;;;;;;;23.73;11.93;;;;;;;15.04;37.33;97112.28;5051784;28;20045;-71
2021/03/24 09:00:02;;;;;;;22.83;11.48;;;;;;;15.16;37.61;97111.56;5052297;28;20037;-71
2021/03/24 09:02:41;;;;;;;22.17;11.35;;;;;;;15.64;34.86;97120.22;5052704;28;20041;-71
2021/03/24 09:05:19;;;;;;;17.50;10.18;;;;;;;15.81;34.79;97113.81;5051467;28;20053;-72
2021/03/24 09:08:00;;;;;;;22.30;11.50;;;;;;;15.78;34.28;97106.25;5052635;28;20553;-73
2021/03/24 09:10:47;;;;;;;21.30;11.10;;;;;;;15.96;33.68;97120.66;5051918;28;20492;-72
2021/03/24 09:13:20;;;;;;;18.85;10.70;;;;;;;15.95;32.50;97112.78;5051457;28;20041;-71
2021/03/24 09:16:12;;;;;;;20.40;11.38;;;;;;;16.13;32.33;97122.47;5052660;28;20514;-71
2021/03/24 09:18:47;;;;;;;17.98;11.75;;;;;;;15.99;33.00;97116.47;5051788;28;20099;-71
2021/03/24 09:21:17;;;;;;;19.00;11.18;;;;;;;15.76;33.71;97111.25;5052347;28;20045;-71
2021/03/24 09:24:13;;;;;;;20.30;11.25;;;;;;;15.57;33.57;97108.16;5051839;28;20048;-71
2021/03/24 09:27:23;;;;;;;21.80;11.88;;;;;;;15.23;33.28;97104.44;5051655;28;20675;-72
2021/03/24 09:30:08;;;;;;;19.38;10.82;;;;;;;14.99;34.90;97093.25;5012419;28;20533;-72
2021/03/24 09:32:39;;;;;;;21.77;11.38;;;;;;;15.25;33.35;97091.19;5011787;28;20045;-72
2021/03/24 09:35:23;;;;;;;24.48;11.07;;;;;;;15.34;35.95;97091.94;5011664;28;20049;-73
2021/03/24 09:37:57;;;;;;;18.05;11.75;;;;;;;15.53;35.47;97090.72;5012368;28;20072;-73
2021/03/24 09:40:31;;;;;;;18.55;10.55;;;;;;;15.69;33.80;97089.03;5011142;28;20124;-73
2021/03/24 09:42:59;;;;;;;20.48;11.43;;;;;;;15.82;33.48;97087.19;5012497;28;20052;-71
2021/03/24 09:45:29;;;;;;;16.10;10.43;;;;;;;16.00;33.01;97087.84;5010975;28;20049;-72
2021/03/24 09:48:06;;;;;;;18.17;10.90;;;;;;;15.84;33.11;97082.97;5021233;28;20397;-72
2021/03/24 09:50:38;;;;;;;23.40;12.15;;;;;;;15.83;33.24;97084.09;5031488;28;20049;-73
2021/03/24 09:53:10;;;;;;;21.23;10.93;;;;;;;15.27;36.03;97080.69;5031013;28;20501;-73
2021/03/24 09:55:38;;;;;;;18.63;11.27;;;;;;;15.03;33.84;97083.22;5031159;28;20511;-73
2021/03/24 09:58:40;;;;;;;19.08;11.02;;;;;;;14.95;34.72;97075.84;5030187;28;20067;-73
2021/03/24 10:01:23;;;;;;;17.83;10.60;;;;;;;14.60;35.65;97075.94;5031384;28;20431;-73
2021/03/24 10:03:58;;;;;;;18.58;10.75;;;;;;;14.52;36.05;97066.63;5031330;28;20504;-73
2021/03/24 10:06:29;;;;;;;18.05;10.95;;;;;;;14.48;35.77;97064.84;5030901;28;20051;-73
2021/03/24 10:09:07;;;;;;;27.65;10.93;;;;;;;14.54;37.65;97060.78;5031446;28;20497;-73
2021/03/24 10:11:47;;;;;;;21.63;11.07;;;;;;;14.48;36.84;97062.91;5030593;28;20045;-73
2021/03/24 10:14:20;;;;;;;19.92;10.90;;;;;;;14.68;38.02;97061.41;5031266;28;20055;-73
2021/03/24 10:16:49;;;;;;;20.70;11.52;;;;;;;14.75;36.76;97056.22;5030473;28;20052;-74
2021/03/24 10:19:21;;;;;;;18.02;10.63;;;;;;;14.29;37.44;97060.47;5028614;28;20057;-71
2021/03/24 10:21:53;;;;;;;24.08;11.45;;;;;;;14.27;38.24;97067.44;5031249;28;20147;-71
2021/03/24 10:24:23;;;;;;;16.55;10.75;;;;;;;14.16;38.74;97056.00;5030631;28;20045;-72
2021/03/24 10:26:53;;;;;;;17.33;10.95;;;;;;;14.26;38.85;97055.66;5029831;28;20042;-71
2021/03/24 10:29:24;;;;;;;22.67;12.30;;;;;;;14.21;38.52;97053.09;5029835;28;20053;-72
2021/03/24 10:31:55;;;;;;;18.63;11.15;;;;;;;14.13;39.92;97051.16;5031399;28;20044;-71
2021/03/24 10:34:29;;;;;;;18.77;11.52;;;;;;;13.76;38.79;97047.94;5029917;28;20048;-71
2021/03/24 10:37:01;;;;;;;17.42;10.93;;;;;;;13.59;39.39;97045.22;5031112;28;20046;-71
2021/03/24 10:39:34;;;;;;;21.02;11.40;;;;;;;13.64;39.93;97039.56;5030123;28;20051;-71
2021/03/24 10:42:07;;;;;;;20.80;12.23;;;;;;;13.38;39.33;97038.75;5030401;28;20046;-71
2021/03/24 10:44:45;;;;;;;19.17;11.52;;;;;;;12.84;39.54;97038.06;5030805;28;20048;-71
2021/03/24 10:47:21;;;;;;;21.67;11.43;;;;;;;12.73;41.71;97041.06;5029395;28;20053;-72
2021/03/24 10:50:12;;;;;;;18.98;11.07;;;;;;;12.61;43.17;97038.13;5011430;28;20045;-70
2021/03/24 10:52:41;;;;;;;26.05;11.90;;;;;;;12.76;42.74;97037.72;5022618;28;20041;-72
2021/03/24 10:55:19;;;;;;;20.92;12.18;;;;;;;12.54;42.01;97035.06;5030093;28;20761;-71
2021/03/24 10:57:54;;;;;;;21.23;12.38;;;;;;;12.46;41.86;97033.06;5030582;28;20045;-72
2021/03/24 11:00:25;;;;;;;20.77;11.45;;;;;;;12.62;44.54;97026.06;5029607;28;20045;-71
2021/03/24 11:03:05;;;;;;;21.70;12.05;;;;;;;12.37;41.77;97024.84;5030908;28;20037;-71
2021/03/24 11:05:40;;;;;;;21.58;10.82;;;;;;;11.69;43.29;97010.38;5029814;28;20045;-72
2021/03/24 11:08:20;;;;;;;19.40;11.95;;;;;;;11.68;43.91;97013.41;5029350;28;20068;-71
2021/03/24 11:10:51;;;;;;;21.30;11.68;;;;;;;11.61;46.91;97005.66;5030282;28;20049;-72
2021/03/24 11:13:22;;;;;;;19.08;11.70;;;;;;;11.92;46.59;97002.22;5029674;28;20574;-71
2021/03/24 11:16:06;;;;;;;22.23;12.32;;;;;;;12.13;44.38;97003.34;5030462;28;20099;-71
2021/03/24 11:18:38;;;;;;;19.85;11.88;;;;;;;12.12;44.26;96993.53;5030165;28;20048;-71
2021/03/24 11:21:20;;;;;;;21.55;11.82;;;;;;;12.20;44.09;96992.75;5030364;28;20509;-71
2021/03/24 11:23:51;;;;;;;21.10;11.50;;;;;;;12.31;45.66;96989.75;5010019;28;20501;-71
2021/03/24 11:26:48;;;;;;;18.80;11.13;;;;;;;12.49;44.11;96994.22;5010278;28;20132;-71
2021/03/24 11:29:20;;;;;;;26.13;12.18;;;;;;;12.66;45.30;96983.34;5010046;28;20111;-71
2021/03/24 11:31:55;;;;;;;21.60;12.18;;;;;;;12.87;44.99;96982.78;5010074;28;20137;-71
2021/03/24 11:34:26;;;;;;;18.55;11.40;;;;;;;13.12;44.20;96973.81;5010504;28;20070;-72
2021/03/24 11:36:57;;;;;;;21.35;12.68;;;;;;;13.04;41.39;96978.13;5008691;28;20042;-71
2021/03/24 11:39:28;;;;;;;20.30;12.45;;;;;;;12.97;41.69;96977.00;5010283;28;20042;-71
2021/03/24 11:42:11;;;;;;;19.75;11.70;;;;;;;13.02;42.93;96964.00;5010194;28;20080;-71
2021/03/24 11:44:38;;;;;;;23.13;11.50;;;;;;;12.65;43.52;96968.06;5009527;28;20045;-72
2021/03/24 11:47:15;;;;;;;18.25;11.00;;;;;;;12.47;43.09;96967.19;5012108;28;20049;-71
2021/03/24 11:49:47;;;;;;;18.30;11.45;;;;;;;12.47;43.88;96963.66;5009821;28;20559;-71
2021/03/24 11:52:33;;;;;;;20.25;11.52;;;;;;;12.59;43.51;96958.41;5019488;28;20124;-71
2021/03/24 11:55:07;;;;;;;18.77;11.25;;;;;;;12.91;44.26;96959.94;5029563;28;20100;-72
2021/03/24 11:57:46;;;;;;;17.95;11.25;;;;;;;13.15;42.83;96961.44;5029905;28;20052;-71
2021/03/24 12:00:29;;;;;;;21.15;11.98;;;;;;;13.37;43.60;96957.81;5029642;28;20049;-72